createdAt,value
2018-07-19T00:01:31.104Z,25.60
2018-07-19T00:03:59.691Z,25.60
2018-07-19T00:06:28.224Z,25.50
2018-07-19T00:08:57.471Z,25.50
2018-07-19T00:11:27.225Z,25.50
2018-07-19T00:13:56.386Z,25.40
2018-07-19T00:16:24.946Z,25.40
2018-07-19T00:21:21.834Z,25.30
2018-07-19T00:23:50.390Z,25.30
2018-07-19T00:26:19.005Z,25.20
2018-07-19T00:28:47.559Z,25.20
2018-07-19T00:33:44.291Z,25.10
2018-07-19T00:36:12.839Z,25.00
2018-07-19T00:38:41.703Z,25.00
2018-07-19T00:41:10.257Z,25.00
2018-07-19T00:43:38.871Z,25.10
2018-07-19T00:46:07.495Z,25.00
2018-07-19T00:48:36.010Z,25.00
2018-07-19T00:53:33.005Z,25.00
2018-07-19T00:56:01.815Z,24.90
2018-07-19T00:58:30.360Z,24.90
2018-07-19T01:00:58.844Z,24.90
2018-07-19T01:03:28.124Z,24.90
2018-07-19T01:08:26.662Z,24.90
2018-07-19T01:10:55.232Z,24.80
2018-07-19T01:13:23.827Z,24.80
2018-07-19T01:15:53.245Z,24.80
2018-07-19T01:18:21.782Z,24.70
2018-07-19T01:20:50.342Z,24.70
2018-07-19T01:23:18.918Z,24.70
2018-07-19T01:25:48.584Z,24.60
2018-07-19T01:28:17.151Z,24.50
2018-07-19T01:30:45.675Z,24.50
2018-07-19T01:33:14.208Z,24.40
2018-07-19T01:35:42.788Z,24.30
2018-07-19T01:38:11.338Z,24.30
2018-07-19T01:40:39.877Z,24.30
2018-07-19T01:43:09.351Z,24.30
2018-07-19T01:45:37.886Z,24.20
2018-07-19T01:48:06.528Z,24.20
2018-07-19T01:50:35.079Z,24.10
2018-07-19T01:53:03.655Z,24.10
2018-07-19T01:55:32.191Z,24.10
2018-07-19T01:58:01.395Z,24.10
2018-07-19T02:00:30.116Z,24.10
2018-07-19T02:02:58.630Z,24.10
2018-07-19T02:05:27.335Z,24.00
2018-07-19T02:07:55.820Z,24.00
2018-07-19T02:10:24.363Z,24.10
2018-07-19T02:17:50.382Z,24.10
2018-07-19T02:20:18.892Z,24.10
2018-07-19T02:22:48.269Z,24.10
2018-07-19T02:25:16.786Z,24.10
2018-07-19T02:30:13.519Z,23.90
2018-07-19T02:32:42.294Z,23.80
2018-07-19T02:35:11.736Z,23.80
2018-07-19T02:37:40.300Z,23.70
2018-07-19T02:40:08.851Z,23.60
2018-07-19T02:42:37.375Z,23.60
2018-07-19T02:45:05.884Z,23.50
2018-07-19T02:47:34.431Z,23.40
2018-07-19T02:50:03.885Z,23.40
2018-07-19T02:52:32.460Z,23.30
2018-07-19T02:55:01.070Z,23.20
2018-07-19T02:57:29.614Z,23.10
2018-07-19T02:59:59.155Z,23.10
2018-07-19T03:02:27.792Z,23.10
2018-07-19T03:04:56.371Z,23.00
2018-07-19T03:07:24.944Z,23.00
2018-07-19T03:09:53.479Z,23.00
2018-07-19T03:12:22.004Z,22.80
2018-07-19T03:17:18.759Z,22.70
2018-07-19T03:19:50.371Z,22.80
2018-07-19T03:22:18.945Z,22.70
2018-07-19T03:24:47.666Z,22.80
2018-07-19T03:27:16.543Z,22.70
2018-07-19T03:29:45.114Z,22.70
2018-07-19T03:32:15.032Z,22.70
2018-07-19T03:34:43.660Z,22.80
2018-07-19T03:37:12.226Z,22.80
2018-07-19T03:39:40.714Z,22.80
2018-07-19T03:42:09.403Z,22.80
2018-07-19T03:44:37.987Z,22.70
2018-07-19T03:49:34.788Z,22.80
2018-07-19T03:52:03.332Z,22.70
2018-07-19T03:54:32.011Z,22.70
2018-07-19T03:57:00.617Z,22.60
2018-07-19T03:59:29.172Z,22.60
2018-07-19T04:01:57.920Z,22.60
2018-07-19T04:06:55.652Z,22.50
2018-07-19T04:09:24.150Z,22.60
2018-07-19T04:11:52.641Z,22.60
2018-07-19T04:14:21.267Z,22.60
2018-07-19T04:16:49.856Z,22.60
2018-07-19T04:19:18.430Z,22.60
2018-07-19T04:21:46.923Z,22.50
2018-07-19T04:24:15.491Z,22.50
2018-07-19T04:26:44.059Z,22.50
2018-07-19T04:29:12.670Z,22.40
2018-07-19T04:34:09.419Z,22.30
2018-07-19T04:36:37.900Z,22.20
2018-07-19T04:39:07.676Z,22.30
2018-07-19T04:41:36.249Z,22.40
2018-07-19T04:44:04.766Z,22.50
2018-07-19T04:46:33.418Z,22.60
2018-07-19T04:49:01.986Z,22.70
2018-07-19T04:51:30.546Z,22.80
2018-07-19T04:53:59.062Z,22.80
2018-07-19T04:56:28.693Z,22.60
2018-07-19T04:58:57.222Z,22.50
2018-07-19T05:01:25.730Z,22.50
2018-07-19T05:03:54.318Z,22.60
2018-07-19T05:06:22.924Z,22.60
2018-07-19T05:08:51.720Z,22.80
2018-07-19T05:13:49.211Z,23.00
2018-07-19T05:16:17.742Z,23.10
2018-07-19T05:18:46.217Z,23.10
2018-07-19T05:21:14.745Z,23.10
2018-07-19T05:23:43.293Z,23.10
2018-07-19T05:26:11.802Z,23.10
2018-07-19T05:31:20.355Z,23.30
2018-07-19T05:36:18.060Z,23.40
2018-07-19T05:38:46.596Z,23.60
2018-07-19T05:41:15.162Z,23.70
2018-07-19T05:43:44.803Z,23.70
2018-07-19T05:48:44.656Z,24.60
2018-07-19T05:51:24.469Z,24.80
2018-07-19T05:53:54.912Z,24.90
2018-07-19T05:56:23.565Z,24.60
2018-07-19T05:58:52.422Z,24.70
2018-07-19T06:01:22.594Z,25.90
2018-07-19T06:03:51.095Z,27.80
2018-07-19T06:06:19.755Z,29.70
2018-07-19T06:11:17.821Z,32.50
2018-07-19T06:13:46.760Z,33.50
2018-07-19T06:16:15.365Z,34.30
2018-07-19T06:18:44.327Z,34.80
2018-07-19T06:21:12.862Z,35.20
2018-07-19T06:23:41.411Z,35.60
2018-07-19T06:26:10.028Z,36.20
2018-07-19T06:28:38.585Z,36.80
2018-07-19T06:31:07.243Z,37.40
2018-07-19T06:33:35.891Z,37.40
2018-07-19T06:36:04.602Z,37.30
2018-07-19T06:41:01.387Z,37.30
2018-07-19T06:43:29.907Z,37.20
2018-07-19T06:45:58.476Z,37.00
2018-07-19T06:48:27.538Z,36.80
2018-07-19T06:50:56.227Z,36.50
2018-07-19T06:53:24.803Z,35.80
2018-07-19T06:55:53.292Z,34.70
2018-07-19T06:58:22.012Z,33.50
2018-07-19T07:00:52.069Z,32.50
2018-07-19T07:05:48.978Z,30.70
2018-07-19T07:08:17.554Z,30.00
2018-07-19T07:10:46.076Z,29.20
2018-07-19T07:13:15.646Z,28.50
2018-07-19T07:15:44.474Z,27.90
2018-07-19T07:18:13.005Z,27.70
2018-07-19T07:20:45.287Z,27.40
2018-07-19T07:23:13.870Z,27.20
2018-07-19T07:25:48.686Z,27.00
2018-07-19T07:28:17.989Z,26.90
2018-07-19T07:30:46.799Z,27.10
2018-07-19T07:33:15.784Z,27.30
2018-07-19T07:35:45.259Z,27.60
2018-07-19T07:38:13.967Z,27.80
2018-07-19T07:40:42.519Z,28.10
2018-07-19T07:43:11.319Z,28.40
2018-07-19T07:45:40.638Z,28.80
2018-07-19T07:48:09.355Z,28.90
2018-07-19T07:50:39.006Z,29.00
2018-07-19T07:53:08.031Z,29.20
2018-07-19T07:55:37.008Z,29.30
2018-07-19T07:58:05.655Z,29.50
2018-07-19T08:00:34.241Z,29.60
2018-07-19T08:03:02.972Z,29.60
2018-07-19T08:05:34.618Z,29.80
2018-07-19T08:08:03.167Z,30.00
2018-07-19T08:10:31.766Z,30.00
2018-07-19T08:13:00.579Z,30.10
2018-07-19T08:15:30.303Z,30.00
2018-07-19T08:18:02.939Z,29.90
2018-07-19T08:20:34.743Z,29.90
2018-07-19T08:23:03.340Z,29.80
2018-07-19T08:25:31.886Z,29.80
2018-07-19T08:28:00.569Z,29.90
2018-07-19T08:30:30.166Z,29.90
2018-07-19T08:32:59.044Z,30.00
2018-07-19T08:35:27.630Z,30.10
2018-07-19T08:37:56.336Z,30.10
2018-07-19T08:40:25.042Z,30.00
2018-07-19T08:42:53.707Z,30.00
2018-07-19T08:45:22.223Z,30.00
2018-07-19T08:47:50.791Z,30.00
2018-07-19T08:50:19.361Z,29.90
2018-07-19T08:52:47.894Z,29.80
2018-07-19T08:55:16.520Z,29.90
2018-07-19T08:57:45.051Z,30.00
2018-07-19T09:00:14.286Z,30.00
2018-07-19T09:02:42.783Z,30.00
2018-07-19T09:05:11.336Z,29.80
2018-07-19T09:07:39.890Z,29.80
2018-07-19T09:12:36.764Z,29.90
2018-07-19T09:15:06.764Z,29.80
2018-07-19T09:20:07.174Z,29.60
2018-07-19T09:22:35.761Z,29.60
2018-07-19T09:25:04.545Z,29.70
2018-07-19T09:27:33.158Z,29.80
2018-07-19T09:32:29.908Z,29.80
2018-07-19T09:39:56.152Z,29.40
2018-07-19T09:42:25.911Z,29.20
2018-07-19T09:44:54.474Z,29.10
2018-07-19T09:47:24.023Z,29.20
2018-07-19T09:49:52.522Z,29.30
2018-07-19T09:52:21.064Z,29.40
2018-07-19T09:54:57.655Z,29.60
2018-07-19T09:57:27.039Z,29.60
2018-07-19T09:59:56.480Z,29.70
2018-07-19T10:02:25.203Z,29.60
2018-07-19T10:04:53.912Z,29.70
2018-07-19T10:07:22.716Z,29.80
2018-07-19T10:09:51.474Z,29.90
2018-07-19T10:12:20.439Z,30.00
2018-07-19T10:14:49.272Z,30.10
2018-07-19T10:17:18.087Z,30.20
2018-07-19T10:19:46.803Z,30.10
2018-07-19T10:22:15.496Z,30.20
2018-07-19T10:27:13.804Z,30.50
2018-07-19T10:29:43.235Z,30.60
2018-07-19T10:32:13.103Z,30.50
2018-07-19T10:39:39.944Z,30.30
2018-07-19T10:42:09.360Z,30.20
2018-07-19T10:44:38.278Z,30.20
2018-07-19T10:49:35.169Z,30.40
2018-07-19T10:52:03.931Z,30.60
2018-07-19T10:54:32.527Z,30.90
2018-07-19T10:57:01.053Z,31.00
2018-07-19T10:59:29.601Z,31.00
2018-07-19T11:01:58.286Z,31.00
2018-07-19T11:04:26.830Z,31.10
2018-07-19T11:06:55.416Z,31.30
2018-07-19T11:09:26.144Z,31.30
2018-07-19T11:11:55.048Z,31.30
2018-07-19T11:14:23.899Z,31.20
2018-07-19T11:16:52.618Z,31.40
2018-07-19T11:19:21.199Z,31.70
2018-07-19T11:21:49.788Z,31.60
2018-07-19T11:26:46.764Z,31.10
2018-07-19T11:29:15.300Z,30.90
2018-07-19T11:31:43.771Z,30.90
2018-07-19T11:34:12.407Z,31.10
2018-07-19T11:36:40.915Z,31.20
2018-07-19T11:39:10.187Z,31.40
2018-07-19T11:41:40.771Z,31.50
2018-07-19T11:44:09.560Z,31.40
2018-07-19T11:46:38.247Z,31.40
2018-07-19T11:49:07.924Z,31.50
2018-07-19T11:51:36.472Z,31.50
2018-07-19T11:54:05.023Z,31.50
2018-07-19T11:56:33.652Z,31.40
2018-07-19T11:59:02.333Z,31.30
2018-07-19T12:01:30.861Z,31.40
2018-07-19T12:03:59.379Z,31.70
2018-07-19T12:08:56.161Z,32.20
2018-07-19T12:11:24.700Z,32.30
2018-07-19T12:13:53.967Z,32.50
2018-07-19T12:16:22.589Z,32.80
2018-07-19T12:18:51.864Z,33.00
2018-07-19T12:21:21.316Z,33.10
2018-07-19T12:23:50.033Z,33.20
2018-07-19T12:26:18.604Z,33.20
2018-07-19T12:28:47.409Z,33.10
2018-07-19T12:31:16.160Z,33.00
2018-07-19T12:33:44.625Z,33.00
2018-07-19T12:36:13.495Z,33.00
2018-07-19T12:38:42.152Z,33.00
2018-07-19T12:41:11.042Z,32.80
2018-07-19T12:43:39.550Z,32.70
2018-07-19T12:46:08.992Z,32.70
2018-07-19T12:48:37.764Z,32.70
2018-07-19T12:51:06.477Z,32.60
2018-07-19T12:53:35.142Z,32.70
2018-07-19T12:56:03.731Z,32.60
2018-07-19T12:58:33.172Z,32.50
2018-07-19T13:01:01.673Z,32.40
2018-07-19T13:03:30.240Z,32.50
2018-07-19T13:05:58.829Z,32.70
2018-07-19T13:08:28.051Z,32.80
2018-07-19T13:13:26.324Z,32.50
2018-07-19T13:15:55.088Z,32.40
2018-07-19T13:18:23.724Z,32.40
2018-07-19T13:20:52.387Z,32.40
2018-07-19T13:23:22.753Z,32.40
2018-07-19T13:25:51.897Z,32.40
2018-07-19T13:30:48.934Z,32.40
2018-07-19T13:33:17.824Z,32.50
2018-07-19T13:35:48.282Z,32.40
2018-07-19T13:38:16.926Z,32.30
2018-07-19T13:40:45.676Z,32.20
2018-07-19T13:43:14.526Z,32.30
2018-07-19T13:45:43.104Z,32.40
2018-07-19T13:48:11.899Z,32.50
2018-07-19T13:50:40.904Z,32.50
2018-07-19T13:53:46.738Z,32.60
2018-07-19T13:56:15.451Z,32.60
2018-07-19T13:58:44.015Z,32.50
2018-07-19T14:01:12.858Z,32.50
2018-07-19T14:03:41.710Z,32.50
2018-07-19T14:06:10.443Z,32.50
2018-07-19T14:08:39.012Z,32.60
2018-07-19T14:11:07.695Z,32.70
2018-07-19T14:13:36.454Z,32.70
2018-07-19T14:16:05.072Z,32.50
2018-07-19T14:18:33.646Z,32.20
2018-07-19T14:21:02.164Z,32.10
2018-07-19T14:23:30.972Z,32.10
2018-07-19T14:26:00.720Z,32.10
2018-07-19T14:28:29.440Z,32.00
2018-07-19T14:31:05.870Z,32.00
2018-07-19T14:33:34.677Z,32.00
2018-07-19T14:36:05.564Z,32.10
2018-07-19T14:38:34.918Z,32.20
2018-07-19T14:41:05.890Z,32.30
2018-07-19T14:43:34.812Z,32.30
2018-07-19T14:46:04.957Z,32.30
2018-07-19T14:48:33.806Z,32.30
2018-07-19T14:51:02.436Z,32.40
2018-07-19T14:53:31.082Z,32.30
2018-07-19T14:55:59.751Z,32.30
2018-07-19T14:58:28.419Z,32.40
2018-07-19T15:00:57.162Z,32.40
2018-07-19T15:05:54.096Z,32.50
2018-07-19T15:10:51.888Z,32.40
2018-07-19T15:13:38.786Z,32.60
2018-07-19T15:18:37.502Z,32.60
2018-07-19T15:21:06.800Z,32.60
2018-07-19T15:26:05.450Z,32.70
2018-07-19T15:28:34.649Z,32.70
2018-07-19T15:31:03.472Z,32.80
2018-07-19T15:33:32.268Z,32.60
2018-07-19T15:36:00.892Z,32.40
2018-07-19T15:38:29.558Z,32.20
2018-07-19T15:43:28.719Z,31.80
2018-07-19T15:45:57.363Z,31.60
2018-07-19T15:50:54.076Z,31.50
2018-07-19T15:53:22.775Z,31.50
2018-07-19T15:55:51.384Z,31.50
2018-07-19T15:58:20.049Z,31.50
2018-07-19T16:00:48.795Z,31.60
2018-07-19T16:03:17.786Z,31.60
2018-07-19T16:05:47.048Z,31.60
2018-07-19T16:08:15.984Z,31.60
2018-07-19T16:10:44.491Z,31.50
2018-07-19T16:13:13.356Z,31.50
2018-07-19T16:15:41.887Z,31.50
2018-07-19T16:20:41.192Z,31.30
2018-07-19T16:23:09.943Z,31.30
2018-07-19T16:25:38.488Z,31.40
2018-07-19T16:28:07.044Z,31.40
2018-07-19T16:30:35.662Z,31.50
2018-07-19T16:33:04.153Z,31.50
2018-07-19T16:35:32.744Z,31.50
2018-07-19T16:38:01.310Z,31.50
2018-07-19T16:40:29.843Z,31.50
2018-07-19T16:42:58.557Z,31.50
2018-07-19T16:45:27.770Z,31.40
2018-07-19T16:47:57.023Z,31.40
2018-07-19T16:50:25.563Z,31.40
2018-07-19T16:52:54.985Z,31.30
2018-07-19T16:55:25.174Z,31.30
2018-07-19T16:57:57.586Z,31.30
2018-07-19T17:00:26.194Z,31.10
2018-07-19T17:02:55.375Z,31.10
2018-07-19T17:05:23.945Z,31.20
2018-07-19T17:07:52.551Z,31.20
2018-07-19T17:10:21.335Z,31.20
2018-07-19T17:12:50.159Z,31.20
2018-07-19T17:15:18.901Z,31.20
2018-07-19T17:17:47.453Z,31.20
2018-07-19T17:20:15.968Z,31.30
2018-07-19T17:22:44.537Z,31.30
2018-07-19T17:25:13.145Z,31.30
2018-07-19T17:30:11.071Z,31.30
2018-07-19T17:32:39.863Z,31.30
2018-07-19T17:35:08.482Z,31.30
2018-07-19T17:37:37.063Z,31.30
2018-07-19T17:40:05.763Z,31.20
2018-07-19T17:42:34.307Z,31.20
2018-07-19T17:45:03.096Z,31.30
2018-07-19T17:47:31.848Z,31.40
2018-07-19T17:50:01.212Z,31.40
2018-07-19T17:52:30.484Z,31.50
2018-07-19T17:55:02.196Z,31.40
2018-07-19T17:57:30.770Z,31.40
2018-07-19T18:04:55.774Z,31.40
2018-07-19T18:07:25.536Z,31.40
2018-07-19T18:09:54.184Z,31.30
2018-07-19T18:12:25.102Z,31.30
2018-07-19T18:15:05.001Z,31.30
2018-07-19T18:27:21.923Z,31.20
2018-07-19T18:29:50.786Z,30.10
2018-07-19T18:32:20.452Z,30.10
2018-07-19T18:37:40.107Z,30.20
2018-07-19T18:40:47.520Z,30.30
2018-07-19T18:43:16.263Z,30.40
2018-07-19T18:45:45.892Z,30.40
2018-07-19T18:48:14.557Z,30.40
2018-07-19T18:50:43.214Z,30.30
2018-07-19T18:53:11.857Z,30.30
2018-07-19T18:55:45.485Z,30.30
2018-07-19T18:58:14.109Z,30.20
2018-07-19T19:00:43.565Z,30.20
2018-07-19T19:03:12.305Z,30.10
2018-07-19T19:05:42.023Z,30.10
2018-07-19T19:14:02.406Z,30.10
2018-07-19T19:16:33.986Z,30.00
2018-07-19T19:19:03.815Z,29.30
2018-07-19T19:21:33.597Z,29.30
2018-07-19T19:26:33.369Z,29.40
2018-07-19T19:29:02.025Z,29.50
2018-07-19T19:31:30.760Z,29.50
2018-07-19T19:33:59.291Z,29.50
2018-07-19T19:36:28.016Z,29.50
2018-07-19T19:38:57.942Z,29.40
2018-07-19T19:41:27.794Z,29.40
2018-07-19T19:43:56.395Z,29.50
2018-07-19T19:46:26.689Z,29.40
2018-07-19T19:48:57.687Z,29.40
2018-07-19T19:51:27.289Z,29.40
2018-07-19T19:53:55.860Z,29.40
2018-07-19T19:56:27.432Z,29.30
2018-07-19T19:58:57.749Z,29.30
2018-07-19T20:01:27.709Z,29.30
2018-07-19T20:03:57.938Z,29.20
2018-07-19T20:06:28.887Z,29.20
2018-07-19T20:09:01.254Z,29.20
2018-07-19T20:11:29.924Z,29.20
2018-07-19T20:16:28.468Z,29.10
2018-07-19T20:18:58.251Z,29.10
2018-07-19T20:21:28.948Z,29.00
2018-07-19T20:26:29.189Z,28.90
2018-07-19T20:28:57.827Z,28.90
2018-07-19T20:31:27.266Z,28.90
2018-07-19T20:33:55.989Z,28.90
2018-07-19T20:36:27.770Z,28.80
2018-07-19T20:38:56.624Z,28.80
2018-07-19T20:41:26.335Z,28.80
2018-07-19T20:43:58.170Z,28.70
2018-07-19T20:46:28.991Z,28.60
2018-07-19T20:48:58.640Z,28.50
2018-07-19T20:51:27.895Z,28.40
2018-07-19T20:56:46.517Z,28.30
2018-07-19T20:59:15.969Z,28.20
2018-07-19T21:01:47.613Z,28.20
2018-07-19T21:06:45.587Z,28.20
2018-07-19T21:09:14.667Z,28.30
2018-07-19T21:11:43.275Z,28.30
2018-07-19T21:14:32.741Z,28.30
2018-07-19T21:28:37.012Z,28.10
2018-07-19T21:31:09.588Z,28.10
2018-07-19T21:33:50.591Z,28.10
2018-07-19T21:36:19.295Z,28.10
2018-07-19T21:38:47.851Z,28.10
2018-07-19T21:41:16.494Z,28.10
2018-07-19T21:43:45.243Z,28.10
2018-07-19T21:46:13.889Z,28.00
2018-07-19T21:48:42.476Z,28.00
2018-07-19T21:51:11.468Z,28.00
2018-07-19T21:53:40.110Z,28.00
2018-07-19T21:56:09.419Z,28.00
2018-07-19T21:58:47.720Z,28.00
2018-07-19T22:01:19.158Z,28.00
2018-07-19T22:04:00.544Z,27.90
2018-07-19T22:06:38.089Z,27.90
2018-07-19T22:09:09.048Z,27.90
2018-07-19T22:11:37.605Z,27.80
2018-07-19T22:14:36.920Z,27.80
2018-07-19T22:17:06.697Z,27.70
2018-07-19T22:19:45.727Z,27.60
2018-07-19T22:22:14.256Z,27.50
2018-07-19T22:24:42.855Z,27.50
2018-07-19T22:27:11.373Z,27.40
2018-07-19T22:29:39.964Z,27.40
2018-07-19T22:32:08.499Z,27.30
2018-07-19T22:37:05.432Z,27.30
2018-07-19T22:39:33.927Z,27.30
2018-07-19T22:42:02.487Z,27.20
2018-07-19T22:44:30.999Z,27.20
2018-07-19T22:47:08.120Z,27.10
2018-07-19T22:49:37.894Z,27.00
2018-07-19T22:52:07.785Z,27.10
2018-07-19T22:54:38.124Z,27.00
2018-07-19T22:57:08.690Z,27.00
2018-07-19T22:59:43.794Z,27.00
2018-07-19T23:02:12.553Z,27.00
2018-07-19T23:04:42.995Z,26.90
2018-07-19T23:07:11.834Z,26.90
2018-07-19T23:09:40.436Z,26.80
2018-07-19T23:12:09.135Z,26.80
2018-07-19T23:14:37.761Z,26.60
2018-07-19T23:17:13.230Z,26.60
2018-07-19T23:22:34.833Z,26.60
2018-07-19T23:25:16.101Z,26.60
2018-07-19T23:28:02.233Z,26.50
2018-07-19T23:30:40.613Z,26.40
2018-07-19T23:35:54.333Z,26.30
2018-07-19T23:38:38.632Z,26.40
2018-07-19T23:41:19.510Z,26.40
2018-07-19T23:43:58.537Z,26.40
2018-07-19T23:46:39.232Z,26.40
2018-07-19T23:49:18.501Z,26.40
2018-07-19T23:51:54.253Z,26.30
2018-07-19T23:54:30.580Z,26.30
2018-07-19T23:57:07.671Z,26.30
2018-07-19T23:59:51.442Z,26.20
